N180GS LEPA-LEMH
Flight info
| Callsign | N180GS |
|---|---|
| Flight time | 0h 31m |
| Altitude | 3000 |
| Route | CDP BALIO |
| Aircraft | BE36/L-VGD/C |
Departure
| Time | 2026-05-07 22:16 |
|---|---|
| Airport | Palma de Mallorca Airport (LEPA) |
Arrival
| Time | 2026-05-07 22:48 |
|---|---|
| Airport | Menorca Airport (LEMH) |
| Time | Latitude | Longitude | Altitude | Speed | Heading |
|---|---|---|---|---|---|
| 2026-05-07 21:53 | 39.54161 | 2.72787 | 61 ft | 0 kts | 146° |
| 2026-05-07 21:58 | 39.54160 | 2.72787 | 34 ft | 0 kts | 146° |
| 2026-05-07 22:09 | 39.54151 | 2.72781 | 34 ft | 6 kts | 274° |
| 2026-05-07 22:09 | 39.54195 | 2.72830 | 34 ft | 14 kts | 66° |
| 2026-05-07 22:09 | 39.54221 | 2.72921 | 34 ft | 12 kts | 66° |
| 2026-05-07 22:09 | 39.54270 | 2.73034 | 34 ft | 16 kts | 59° |
| 2026-05-07 22:10 | 39.54314 | 2.73139 | 33 ft | 9 kts | 97° |
| 2026-05-07 22:10 | 39.54287 | 2.73219 | 33 ft | 0 kts | 104° |
| 2026-05-07 22:15 | 39.54286 | 2.73226 | 33 ft | 5 kts | 103° |
| 2026-05-07 22:15 | 39.54279 | 2.73324 | 32 ft | 17 kts | 94° |
| 2026-05-07 22:15 | 39.54293 | 2.73520 | 29 ft | 27 kts | 65° |
| 2026-05-07 22:15 | 39.54471 | 2.73907 | 28 ft | 79 kts | 58° |
| 2026-05-07 22:16 | 39.54837 | 2.74626 | 149 ft | 106 kts | 57° |
| 2026-05-07 22:16 | 39.55247 | 2.75510 | 359 ft | 123 kts | 63° |
| 2026-05-07 22:16 | 39.55656 | 2.76545 | 557 ft | 134 kts | 63° |
| 2026-05-07 22:16 | 39.56083 | 2.77653 | 755 ft | 141 kts | 63° |
| 2026-05-07 22:17 | 39.56535 | 2.78810 | 950 ft | 146 kts | 63° |
| 2026-05-07 22:17 | 39.57003 | 2.79987 | 1136 ft | 147 kts | 63° |
| 2026-05-07 22:17 | 39.57396 | 2.81199 | 1319 ft | 146 kts | 77° |
| 2026-05-07 22:17 | 39.57585 | 2.82488 | 1481 ft | 145 kts | 79° |
| 2026-05-07 22:18 | 39.57706 | 2.83772 | 1659 ft | 147 kts | 93° |
| 2026-05-07 22:18 | 39.57845 | 2.86402 | 2013 ft | 148 kts | 76° |
| 2026-05-07 22:18 | 39.58106 | 2.87692 | 2197 ft | 147 kts | 75° |
| 2026-05-07 22:19 | 39.58377 | 2.88976 | 2370 ft | 147 kts | 75° |
| 2026-05-07 22:19 | 39.58648 | 2.90253 | 2554 ft | 146 kts | 75° |
| 2026-05-07 22:19 | 39.58916 | 2.91519 | 2729 ft | 145 kts | 75° |
| 2026-05-07 22:19 | 39.59182 | 2.92778 | 2905 ft | 145 kts | 75° |
| 2026-05-07 22:20 | 39.59450 | 2.94045 | 3012 ft | 149 kts | 75° |
| 2026-05-07 22:20 | 39.59731 | 2.95380 | 3019 ft | 158 kts | 76° |
| 2026-05-07 22:20 | 39.60028 | 2.96789 | 3026 ft | 165 kts | 75° |
| 2026-05-07 22:20 | 39.60334 | 2.98233 | 3027 ft | 167 kts | 75° |
| 2026-05-07 22:21 | 39.60640 | 2.99684 | 3024 ft | 166 kts | 75° |
| 2026-05-07 22:21 | 39.60943 | 3.01118 | 3024 ft | 167 kts | 74° |
| 2026-05-07 22:21 | 39.61252 | 3.02584 | 3022 ft | 169 kts | 75° |
| 2026-05-07 22:21 | 39.61562 | 3.04052 | 3023 ft | 167 kts | 75° |
| 2026-05-07 22:22 | 39.61865 | 3.05500 | 3017 ft | 165 kts | 75° |
| 2026-05-07 22:22 | 39.62170 | 3.06933 | 3018 ft | 164 kts | 75° |
| 2026-05-07 22:22 | 39.62469 | 3.08376 | 3013 ft | 167 kts | 75° |
| 2026-05-07 22:22 | 39.62775 | 3.09837 | 3020 ft | 169 kts | 75° |
| 2026-05-07 22:23 | 39.63087 | 3.11316 | 3028 ft | 170 kts | 75° |
| 2026-05-07 22:23 | 39.63400 | 3.12805 | 3027 ft | 171 kts | 75° |
| 2026-05-07 22:23 | 39.63709 | 3.14295 | 3029 ft | 173 kts | 75° |
| 2026-05-07 22:23 | 39.64029 | 3.15806 | 3027 ft | 174 kts | 75° |
| 2026-05-07 22:24 | 39.64344 | 3.17317 | 3030 ft | 173 kts | 75° |
| 2026-05-07 22:24 | 39.64660 | 3.18827 | 3027 ft | 173 kts | 75° |
| 2026-05-07 22:24 | 39.64974 | 3.20334 | 3025 ft | 172 kts | 75° |
| 2026-05-07 22:24 | 39.65282 | 3.21811 | 3025 ft | 172 kts | 75° |
| 2026-05-07 22:25 | 39.65593 | 3.23302 | 3024 ft | 171 kts | 75° |
| 2026-05-07 22:25 | 39.65899 | 3.24773 | 3026 ft | 167 kts | 76° |
| 2026-05-07 22:25 | 39.66205 | 3.26238 | 3030 ft | 170 kts | 76° |
| 2026-05-07 22:25 | 39.66514 | 3.27720 | 3028 ft | 171 kts | 75° |
| 2026-05-07 22:26 | 39.66827 | 3.29219 | 3025 ft | 172 kts | 76° |
| 2026-05-07 22:26 | 39.67142 | 3.30716 | 3023 ft | 171 kts | 76° |
| 2026-05-07 22:26 | 39.67448 | 3.32210 | 3029 ft | 172 kts | 75° |
| 2026-05-07 22:26 | 39.67762 | 3.33722 | 3026 ft | 174 kts | 76° |
| 2026-05-07 22:27 | 39.68076 | 3.35246 | 3025 ft | 175 kts | 75° |
| 2026-05-07 22:27 | 39.68391 | 3.36763 | 3030 ft | 173 kts | 75° |
| 2026-05-07 22:27 | 39.68704 | 3.38268 | 3028 ft | 171 kts | 75° |
| 2026-05-07 22:27 | 39.69012 | 3.39757 | 3028 ft | 171 kts | 76° |
| 2026-05-07 22:28 | 39.69319 | 3.41248 | 3028 ft | 171 kts | 75° |
| 2026-05-07 22:28 | 39.69627 | 3.42737 | 3027 ft | 169 kts | 76° |
| 2026-05-07 22:28 | 39.69733 | 3.44241 | 3026 ft | 168 kts | 95° |
| 2026-05-07 22:28 | 39.69620 | 3.45754 | 3026 ft | 168 kts | 94° |
| 2026-05-07 22:29 | 39.69529 | 3.47277 | 3025 ft | 169 kts | 94° |
| 2026-05-07 22:29 | 39.69435 | 3.48788 | 3026 ft | 171 kts | 94° |
| 2026-05-07 22:29 | 39.69337 | 3.50324 | 3030 ft | 172 kts | 94° |
| 2026-05-07 22:29 | 39.69240 | 3.51873 | 3029 ft | 172 kts | 94° |
| 2026-05-07 22:30 | 39.69141 | 3.53415 | 3030 ft | 171 kts | 94° |
| 2026-05-07 22:30 | 39.69043 | 3.54959 | 3032 ft | 172 kts | 94° |
| 2026-05-07 22:30 | 39.68944 | 3.56512 | 3029 ft | 173 kts | 94° |
| 2026-05-07 22:30 | 39.68844 | 3.58075 | 3032 ft | 173 kts | 94° |
| 2026-05-07 22:31 | 39.68745 | 3.59633 | 3033 ft | 173 kts | 94° |
| 2026-05-07 22:31 | 39.68645 | 3.61182 | 3034 ft | 172 kts | 94° |
| 2026-05-07 22:31 | 39.68545 | 3.62731 | 3035 ft | 172 kts | 94° |
| 2026-05-07 22:31 | 39.68446 | 3.64278 | 3032 ft | 172 kts | 94° |
| 2026-05-07 22:32 | 39.68346 | 3.65829 | 3030 ft | 172 kts | 94° |
| 2026-05-07 22:32 | 39.68246 | 3.67372 | 3030 ft | 170 kts | 94° |
| 2026-05-07 22:32 | 39.68146 | 3.68903 | 3030 ft | 170 kts | 94° |
| 2026-05-07 22:32 | 39.68047 | 3.70430 | 3030 ft | 170 kts | 95° |
| 2026-05-07 22:33 | 39.67948 | 3.71960 | 3027 ft | 171 kts | 94° |
| 2026-05-07 22:33 | 39.67847 | 3.73505 | 3029 ft | 171 kts | 95° |
| 2026-05-07 22:33 | 39.67746 | 3.75043 | 3027 ft | 170 kts | 94° |
| 2026-05-07 22:33 | 39.67648 | 3.76547 | 3028 ft | 169 kts | 95° |
| 2026-05-07 22:34 | 39.67548 | 3.78072 | 3025 ft | 170 kts | 94° |
| 2026-05-07 22:34 | 39.67447 | 3.79598 | 3025 ft | 170 kts | 94° |
| 2026-05-07 22:34 | 39.67346 | 3.81130 | 3029 ft | 170 kts | 95° |
| 2026-05-07 22:34 | 39.67247 | 3.82658 | 3023 ft | 169 kts | 96° |
| 2026-05-07 22:35 | 39.67146 | 3.84172 | 3028 ft | 168 kts | 96° |
| 2026-05-07 22:35 | 39.67047 | 3.85676 | 3024 ft | 167 kts | 96° |
| 2026-05-07 22:35 | 39.66947 | 3.87171 | 3023 ft | 167 kts | 96° |
| 2026-05-07 22:35 | 39.66846 | 3.88675 | 3025 ft | 168 kts | 95° |
| 2026-05-07 22:36 | 39.66746 | 3.90182 | 3026 ft | 168 kts | 96° |
| 2026-05-07 22:36 | 39.66646 | 3.91687 | 3025 ft | 167 kts | 96° |
| 2026-05-07 22:36 | 39.66546 | 3.93166 | 3023 ft | 167 kts | 96° |
| 2026-05-07 22:36 | 39.66445 | 3.94669 | 3025 ft | 168 kts | 96° |
| 2026-05-07 22:37 | 39.66344 | 3.96188 | 3024 ft | 168 kts | 96° |
| 2026-05-07 22:37 | 39.66241 | 3.97701 | 3026 ft | 169 kts | 96° |
| 2026-05-07 22:37 | 39.66139 | 3.99219 | 3026 ft | 169 kts | 96° |
| 2026-05-07 22:37 | 39.66037 | 4.00734 | 3028 ft | 168 kts | 96° |
| 2026-05-07 22:38 | 39.65934 | 4.02245 | 3029 ft | 169 kts | 96° |
| 2026-05-07 22:38 | 39.65831 | 4.03774 | 3007 ft | 170 kts | 96° |
| 2026-05-07 22:38 | 39.65726 | 4.05306 | 3007 ft | 170 kts | 96° |
| 2026-05-07 22:38 | 39.65623 | 4.06831 | 3008 ft | 169 kts | 96° |
| 2026-05-07 22:39 | 39.65519 | 4.08329 | 3005 ft | 162 kts | 96° |
| 2026-05-07 22:39 | 39.65421 | 4.09758 | 2998 ft | 157 kts | 95° |
| 2026-05-07 22:39 | 39.65326 | 4.11153 | 2994 ft | 154 kts | 95° |
| 2026-05-07 22:39 | 39.65232 | 4.12526 | 2983 ft | 152 kts | 96° |
| 2026-05-07 22:40 | 39.65139 | 4.13878 | 2996 ft | 150 kts | 96° |
| 2026-05-07 22:40 | 39.65046 | 4.15219 | 2996 ft | 148 kts | 96° |
| 2026-05-07 22:40 | 39.64954 | 4.16546 | 2994 ft | 148 kts | 95° |
| 2026-05-07 22:40 | 39.64864 | 4.17859 | 2995 ft | 147 kts | 95° |
| 2026-05-07 22:41 | 39.64955 | 4.19163 | 2996 ft | 148 kts | 67° |
| 2026-05-07 22:41 | 39.65722 | 4.20069 | 2995 ft | 157 kts | 26° |
| 2026-05-07 22:41 | 39.66821 | 4.20009 | 2996 ft | 167 kts | 338° |
| 2026-05-07 22:41 | 39.67806 | 4.19151 | 2837 ft | 174 kts | 326° |
| 2026-05-07 22:42 | 39.68829 | 4.18361 | 2584 ft | 169 kts | 349° |
| 2026-05-07 22:42 | 39.69937 | 4.18436 | 2472 ft | 155 kts | 17° |
| 2026-05-07 22:42 | 39.71012 | 4.18714 | 2222 ft | 159 kts | 18° |
| 2026-05-07 22:42 | 39.72108 | 4.18960 | 2011 ft | 158 kts | 16° |
| 2026-05-07 22:43 | 39.73123 | 4.19165 | 1945 ft | 140 kts | 15° |
| 2026-05-07 22:43 | 39.74086 | 4.19366 | 1678 ft | 140 kts | 14° |
| 2026-05-07 22:43 | 39.75002 | 4.19550 | 1602 ft | 125 kts | 13° |
| 2026-05-07 22:43 | 39.75829 | 4.19717 | 1591 ft | 116 kts | 15° |
| 2026-05-07 22:44 | 39.76608 | 4.19876 | 1546 ft | 113 kts | 15° |
| 2026-05-07 22:44 | 39.77385 | 4.20041 | 1387 ft | 116 kts | 14° |
| 2026-05-07 22:44 | 39.78169 | 4.20201 | 1319 ft | 111 kts | 15° |
| 2026-05-07 22:44 | 39.78910 | 4.20351 | 1261 ft | 105 kts | 15° |
| 2026-05-07 22:45 | 39.79614 | 4.20498 | 1188 ft | 100 kts | 14° |
| 2026-05-07 22:45 | 39.80291 | 4.20640 | 1132 ft | 95 kts | 14° |
| 2026-05-07 22:45 | 39.80886 | 4.20758 | 1061 ft | 80 kts | 16° |
| 2026-05-07 22:45 | 39.81437 | 4.20861 | 996 ft | 82 kts | 15° |
| 2026-05-07 22:46 | 39.81998 | 4.20970 | 975 ft | 83 kts | 12° |
| 2026-05-07 22:46 | 39.82578 | 4.21079 | 824 ft | 86 kts | 16° |
| 2026-05-07 22:46 | 39.83158 | 4.21213 | 738 ft | 83 kts | 14° |
| 2026-05-07 22:46 | 39.83724 | 4.21334 | 614 ft | 82 kts | 14° |
| 2026-05-07 22:47 | 39.84290 | 4.21459 | 467 ft | 83 kts | 13° |
| 2026-05-07 22:47 | 39.84842 | 4.21572 | 378 ft | 78 kts | 12° |
| 2026-05-07 22:47 | 39.85365 | 4.21678 | 292 ft | 72 kts | 15° |
| 2026-05-07 22:47 | 39.85794 | 4.21774 | 292 ft | 52 kts | 9° |
| 2026-05-07 22:48 | 39.86043 | 4.21820 | 294 ft | 32 kts | 9° |
| 2026-05-07 22:48 | 39.86202 | 4.21859 | 294 ft | 16 kts | 39° |
| 2026-05-07 22:48 | 39.86212 | 4.21983 | 295 ft | 6 kts | 98° |
| 2026-05-07 22:48 | 39.86211 | 4.21988 | 295 ft | 0 kts | 99° |
| 2026-05-07 22:49 | 39.86211 | 4.21989 | 295 ft | 1 kts | 99° |
| 2026-05-07 22:49 | 39.86205 | 4.22053 | 295 ft | 12 kts | 99° |
| 2026-05-07 22:49 | 39.86188 | 4.22158 | 295 ft | 14 kts | 98° |
| 2026-05-07 22:49 | 39.86173 | 4.22272 | 295 ft | 8 kts | 102° |
| 2026-05-07 22:50 | 39.86105 | 4.22283 | 294 ft | 11 kts | 188° |
| 2026-05-07 22:50 | 39.86098 | 4.22282 | 294 ft | 0 kts | 189° |
| 2026-05-07 22:50 | 39.86093 | 4.22281 | 294 ft | 4 kts | 190° |
| 2026-05-07 22:51 | 39.86085 | 4.22222 | 294 ft | 8 kts | 278° |
| 2026-05-07 22:51 | 39.86106 | 4.22200 | 295 ft | 7 kts | 8° |
| 2026-05-07 22:51 | 39.86127 | 4.22204 | 294 ft | 5 kts | 9° |
| 2026-05-07 22:51 | 39.86131 | 4.22205 | 294 ft | 0 kts | 9° |